• Join FlightAware (Why Join?)
  • Login
  • US Flag 
08:28AM EDT


 

Airport Tracker/Info


-or-


 

Live Flight TrackerFlight Track Log ✈ N156DL ✈ 17-Apr-2013 ✈ KATL - LFPG / CDG

Flight Track Log - Related Links

Times and Time Zones

All times are in EDT time to prevent confusion due to time zone crossing. See the N156DL flight status page for this flight to view local times or setup timezone preferences in your user account.

Time Position Orientation Groundspeed Altitude Reporting Facility
EDT Latitude Longitude Course Direction KTS MPH feet Rate Location/Type
11:20PM 33.6667 -84.3500 53° Northeast 197 227 3,200  Level Atlanta TRACON
11:21PM 33.6833 -84.2833 73° East 262 302 5,500 2,520 Climbing Atlanta TRACON
11:22PM 33.7604 -83.9607 54° Northeast  Level FlightAware Approximate
11:23PM 33.8392 -83.8292 54° Northeast  Level FlightAware Approximate
11:23PM 33.7733 -84.0739 63° Northeast 307 353 11,700  Level Atlanta Center
11:24PM 33.9247 -83.7039 53° Northeast  Level FlightAware Approximate
11:24PM 33.8233 -83.9589 62° Northeast 350 403 14,300  Level Atlanta Center
11:25PM 34.0057 -83.5740 53° Northeast  Level FlightAware Approximate
11:25PM 33.8756 -83.8386 62° Northeast 381 438 17,200  Level Atlanta Center
11:26PM 33.9317 -83.7158 61° Northeast 406 467 19,900 2,460 Climbing Atlanta Center
11:27PM 34.0042 -83.5953 54° Northeast 430 495 22,200 2,340 Climbing Atlanta Center
11:28PM 34.0706 -83.4922 52° Northeast 436 502 24,600 2,400 Climbing Atlanta Center
11:29PM 34.1533 -83.3611 53° Northeast 436 502 27,100 2,160 Climbing Atlanta Center
11:30PM 34.2278 -83.2397 53° Northeast 442 509 29,000 1,560 Climbing Atlanta Center
11:31PM 34.2981 -83.1286 53° Northeast 448 516 30,300 1,200 Climbing Atlanta Center
11:32PM 34.3806 -82.9992 52° Northeast 467 537 31,500 1,320 Climbing Atlanta Center
11:33PM 34.4586 -82.8672 54° Northeast 478 550 33,000 1,500 Climbing Atlanta Center
11:34PM 34.5408 -82.7350 53° Northeast 483 556 34,600 960 Climbing Atlanta Center
11:35PM 34.6186 -82.6050 54° Northeast 483 556 35,000 180 Climbing Atlanta Center
11:36PM 34.7025 -82.4697 53° Northeast 471 542 35,000  Level Atlanta Center
11:37PM 34.7781 -82.3494 53° Northeast 454 522 35,000  Level Atlanta Center
11:38PM 34.8514 -82.2264 54° Northeast 447 514 35,000  Level Atlanta Center
11:39PM 34.9269 -82.1083 52° Northeast 442 509 35,000  Level Atlanta Center
11:40PM 35.0000 -81.9850 54° Northeast 442 509 35,000  Level Atlanta Center
11:41PM 35.0731 -81.8561 55° Northeast 457 526 35,000  Level Atlanta Center
11:42PM 35.1394 -81.7275 58° Northeast 457 526 35,000  Level Atlanta Center
11:43PM 35.2019 -81.6114 57° Northeast 452 520 35,000  Level Atlanta Center
11:44PM 35.2700 -81.4772 58° Northeast 452 520 35,000  Level Atlanta Center
11:45PM 35.3403 -81.3450 57° Northeast 457 526 35,000  Level Atlanta Center
11:46PM 35.4061 -81.2103 59° Northeast 463 533 35,000  Level Atlanta Center
11:47PM 35.4758 -81.0753 58° Northeast 463 533 35,000  Level Atlanta Center
11:48PM 35.5458 -80.9478 56° Northeast 458 527 35,000  Level Atlanta Center
11:49PM 35.6133 -80.8175 57° Northeast 458 527 35,000  Level Atlanta Center
11:50PM 35.6831 -80.6894 56° Northeast 447 514 35,000  Level Atlanta Center
11:51PM 35.7697 -80.5861 44° Northeast 435 501 35,000  Level Atlanta Center
11:53PM 35.9419 -80.3614 47° Northeast 429 494 35,000  Level Washington Center
11:54PM 36.0278 -80.2511 46° Northeast 435 501 35,000  Level Washington Center
11:55PM 36.1111 -80.1428 46° Northeast 435 501 35,000  Level Washington Center
11:56PM 36.1875 -80.0547 43° Northeast 428 493 35,000  Level Washington Center
11:57PM 36.2731 -79.9411 47° Northeast 428 493 35,000  Level Washington Center
11:58PM 36.3606 -79.8322 45° Northeast 433 498 35,000  Level Washington Center
11:59PM 36.4525 -79.7083 47° Northeast 440 506 35,000  Level Washington Center
12:00AM 36.5397 -79.5964 46° Northeast 445 512 35,000  Level Washington Center
12:01AM 36.6183 -79.4944 46° Northeast 445 512 35,000  Level Washington Center
12:02AM 36.7053 -79.3822 46° Northeast 445 512 35,000  Level Washington Center
12:03AM 36.7925 -79.2672 47° Northeast 445 512 35,000  Level Washington Center
12:04AM 36.8881 -79.1419 46° Northeast 445 512 35,000  Level Washington Center
12:05AM 36.9767 -79.0314 45° Northeast 445 512 35,000  Level Washington Center
12:06AM 37.0633 -78.9156 47° Northeast 445 512 35,000  Level Washington Center
12:07AM 37.1414 -78.8097 47° Northeast 445 512 35,000  Level Washington Center
12:08AM 37.2300 -78.6958 46° Northeast 445 512 35,000  Level Washington Center
12:09AM 37.3142 -78.5844 46° Northeast 445 512 35,000  Level Washington Center
12:10AM 37.4111 -78.4575 46° Northeast 450 518 35,000  Level Washington Center
12:11AM 37.4972 -78.3431 46° Northeast 450 518 35,000  Level Washington Center
12:12AM 37.5833 -78.2281 47° Northeast 445 512 35,000  Level Washington Center
12:13AM 37.6650 -78.1156 47° Northeast 440 506 35,000  Level Washington Center
12:14AM 37.7506 -78.0028 46° Northeast 440 506 35,000  Level Washington Center
12:15AM 37.8322 -77.8897 48° Northeast 440 506 35,000  Level Washington Center
12:16AM 37.9136 -77.7764 48° Northeast 435 501 35,000  Level Washington Center
12:17AM 37.9969 -77.6628 47° Northeast 435 501 35,000  Level Washington Center
12:18AM 38.0758 -77.5569 47° Northeast 429 494 35,000  Level Washington Center
12:19AM 38.1589 -77.4428 47° Northeast 429 494 35,000  Level Washington Center
12:20AM 38.2419 -77.3286 47° Northeast 434 499 35,000  Level Washington Center
12:21AM 38.3228 -77.2142 48° Northeast 439 505 35,000  Level Washington Center
12:22AM 38.4056 -77.0992 47° Northeast 439 505 35,000  Level Washington Center
12:23AM 38.4883 -76.9869 47° Northeast 439 505 35,000  Level Washington Center
12:24AM 38.5689 -76.8689 49° Northeast 439 505 35,000  Level Washington Center
12:25AM 38.6514 -76.7561 47° Northeast 439 505 35,000  Level Washington Center
12:26AM 38.7336 -76.6375 48° Northeast 439 505 35,000  Level Washington Center
12:27AM 38.8158 -76.5214 48° Northeast 439 505 35,000  Level Washington Center
12:28AM 38.8961 -76.3997 50° Northeast 439 505 35,000  Level Washington Center
12:29AM 38.9614 -76.2644 58° Northeast 439 505 35,000  Level Washington Center
12:30AM 39.0267 -76.1447 55° Northeast 444 511 35,000  Level Washington Center
12:31AM 39.0939 -76.0142 56° Northeast 444 511 35,000  Level Washington Center
12:32AM 39.1631 -75.8808 56° Northeast 444 511 35,000  Level Washington Center
12:33AM 39.2447 -75.7578 49° Northeast 444 511 35,000  Level Washington Center
12:34AM 39.3447 -75.6747 33° Northeast 429 494 35,000  Level Washington Center
12:36AM 39.5028 -75.4742 44° Northeast 435 501 35,000  Level New York Center
12:37AM 39.5886 -75.3558 47° Northeast 440 506 35,000  Level New York Center
12:38AM 39.6722 -75.2425 46° Northeast 435 501 35,000  Level New York Center
12:39AM 39.7453 -75.1339 49° Northeast 435 501 35,000  Level New York Center
12:40AM 39.8286 -75.0175 47° Northeast 440 506 35,000  Level New York Center
12:41AM 39.8897 -74.8831 59° Northeast 435 501 35,000  Level New York Center
12:42AM 39.9472 -74.7267 64° Northeast 430 495 35,000  Level New York Center
12:44AM 40.0831 -74.3736 63° Northeast 447 514 35,000  Level Boston Center
12:45AM 40.1356 -74.2286 65° Northeast 441 507 35,000  Level Boston Center
12:46AM 40.1897 -74.0833 64° Northeast 441 507 35,000  Level Boston Center
12:47AM 40.2394 -73.9569 63° Northeast 441 507 35,000  Level Boston Center
12:48AM 40.2956 -73.8167 62° Northeast 436 502 35,000  Level Boston Center
12:49AM 40.3517 -73.6492 66° East 442 509 35,000  Level Boston Center
12:50AM 40.4072 -73.5003 64° Northeast 442 509 35,000  Level Boston Center
12:51AM 40.4586 -73.3539 65° Northeast 442 509 35,000  Level Boston Center
12:52AM 40.5117 -73.2072 65° Northeast 442 509 35,000  Level Boston Center
12:53AM 40.5647 -73.0575 65° Northeast 442 509 35,000  Level Boston Center
12:54AM 40.6092 -72.9403 63° Northeast 442 509 35,000  Level Boston Center
12:55AM 40.6703 -72.7603 66° East 442 509 35,000  Level Boston Center
12:56AM 40.7269 -72.6100 64° Northeast 442 509 35,000  Level Boston Center
12:57AM 40.7750 -72.4811 64° Northeast 436 502 35,000  Level Boston Center
12:58AM 40.8289 -72.3303 65° Northeast 442 509 35,000  Level Boston Center
12:59AM 40.8808 -72.1794 65° Northeast 447 514 35,000  Level Boston Center
01:00AM 40.9325 -72.0308 65° Northeast 447 514 35,000  Level Boston Center
01:01AM 40.9964 -71.8736 62° Northeast 442 509 35,000  Level Boston Center
01:02AM 41.0414 -71.7053 70° East 454 522 35,000  Level Boston Center
01:03AM 41.0842 -71.5836 65° Northeast 454 522 35,000  Level Boston Center
01:04AM 41.1517 -71.4147 62° Northeast 441 507 35,000  Level Boston Center
01:05AM 41.2042 -71.2564 66° East 446 513 35,000  Level Boston Center
01:06AM 41.2544 -71.1008 67° East 451 519 35,000  Level Boston Center
01:07AM 41.3069 -70.9478 65° Northeast 451 519 35,000  Level Boston Center
01:08AM 41.3567 -70.7947 67° East 451 519 35,000  Level Boston Center
01:09AM 41.4086 -70.6411 66° East 451 519 35,000  Level Boston Center
01:10AM 41.4517 -70.4764 71° East 456 525 35,000  Level Boston Center
01:11AM 41.5031 -70.3225 66° East 461 531 35,000  Level Boston Center
01:12AM 41.5544 -70.1708 66° East 456 525 35,000 -60 Level Boston Center
01:13AM 41.6033 -70.0164 67° East 456 525 34,900  Descending Boston Center
01:14AM 41.6542 -69.8700 65° Northeast 445 512 35,000  Climbing Boston Center
01:15AM 41.6986 -69.7153 69° East 440 506 35,000  Level Boston Center
01:16AM 41.7469 -69.5628 67° East 440 506 35,000  Level Boston Center
01:17AM 41.7972 -69.4131 66° East 440 506 35,000  Level Boston Center
01:18AM 41.8472 -69.2628 66° East 440 506 35,000  Level Boston Center
01:19AM 41.8950 -69.1125 67° East 440 506 35,000  Level Boston Center
01:20AM 41.9392 -68.9817 66° East 435 501 35,000  Level Boston Center
01:21AM 41.9864 -68.8256 68° East 440 506 35,000  Level Boston Center
01:22AM 42.0000 -68.7500 76° East 440 506 35,000  Level Moncton Center
01:23AM 42.0333 -68.6167 71° East 440 506 35,000  Level Moncton Center
01:23AM 42.0803 -68.5206 57° Northeast 440 506 35,000  Level Boston Center
01:24AM 42.1250 -68.3639 69° East 440 506 35,000  Level Boston Center
01:25AM 42.1714 -68.2122 68° East 440 506 35,000  Level Boston Center
01:26AM 42.2197 -68.0575 67° East 440 506 35,000  Level Boston Center
01:27AM 42.2719 -67.8967 66° East 435 501 35,000  Level Boston Center
01:28AM 42.2833 -67.8333 76° East 440 506 35,000  Level Moncton Center
01:29AM 42.3167 -67.6667 75° East 440 506 35,000  Level Moncton Center
01:30AM 42.3667 -67.5167 66° East 440 506 35,000  Level Moncton Center
01:31AM 42.4167 -67.3667 66° East 440 506 35,000  Level Moncton Center
01:32AM 42.4500 -67.2167 73° East 440 506 35,000  Level Moncton Center
01:33AM 42.5000 -67.0667 66° East 440 506 35,000  Level Moncton Center
01:34AM 42.5333 -66.9167 73° East 440 506 35,000  Level Moncton Center
01:35AM 42.5833 -66.7500 68° East 440 506 35,000  Level Moncton Center
01:36AM 42.6333 -66.6000 66° East 440 506 35,000  Level Moncton Center
01:37AM 42.6833 -66.4333 68° East 440 506 35,000  Level Moncton Center
01:38AM 42.7167 -66.2833 73° East 440 506 35,000  Level Moncton Center
01:39AM 42.7667 -66.1333 66° East 440 506 35,000  Level Moncton Center
01:40AM 42.8000 -65.9667 75° East 440 506 35,000  Level Moncton Center
01:41AM 42.8333 -65.8333 71° East 440 506 35,000  Level Moncton Center
01:42AM 42.9000 -65.6500 64° Northeast 440 506 35,000  Level Moncton Center
01:43AM 42.9333 -65.5167 71° East 440 506 35,000  Level Moncton Center
01:44AM 42.9833 -65.3500 68° East 440 506 35,000  Level Moncton Center
01:45AM 43.0167 -65.2000 73° East 440 506 35,000  Level Moncton Center
01:46AM 43.0667 -65.0333 68° East 440 506 35,000  Level Moncton Center
01:47AM 43.1000 -64.8833 73° East 440 506 35,000  Level Moncton Center
01:48AM 43.1500 -64.7167 68° East 440 506 35,000  Level Moncton Center
01:49AM 43.1833 -64.5500 75° East 440 506 35,000  Level Moncton Center
01:50AM 43.2333 -64.4000 65° Northeast 440 506 35,000  Level Moncton Center
01:51AM 43.2667 -64.2667 71° East 440 506 35,000  Level Moncton Center
01:52AM 43.3000 -64.1000 75° East 440 506 35,000  Level Moncton Center
01:53AM 43.3500 -63.9333 68° East 440 506 35,000  Level Moncton Center
01:54AM 43.3833 -63.7833 73° East 440 506 35,000  Level Moncton Center
01:55AM 43.4333 -63.6333 65° Northeast 430 495 35,000  Level Moncton Center
01:56AM 43.4667 -63.4500 76° East 440 506 35,000  Level Moncton Center
01:57AM 43.5167 -63.2833 67° East 450 518 35,000  Level Moncton Center
01:58AM 43.5500 -63.1500 71° East 450 518 35,000  Level Moncton Center
01:58AM 43.5667 -63.0500 77° East 450 518 35,000  Level Gander Center
01:59AM 43.6000 -62.8833 75° East 450 518 35,000  Level Gander Center
02:00AM 43.6500 -62.7333 65° Northeast 450 518 35,000  Level Gander Center
02:01AM 43.6667 -62.6333 77° East 450 518 35,000  Level Moncton Center
02:02AM 43.7000 -62.4833 73° East 440 506 35,000  Level Moncton Center
02:03AM 43.7333 -62.3167 74° East 430 495 35,000  Level Moncton Center
02:04AM 43.7833 -62.1833 63° Northeast 430 495 35,000  Level Moncton Center
02:04AM 43.7833 -62.0833 90° East 430 495 35,000  Level Gander Center
02:05AM 43.8333 -61.9333 65° Northeast 430 495 35,000  Level Gander Center
02:06AM 43.8833 -61.7667 67° East 440 506 35,000  Level Gander Center
02:07AM 43.8833 -61.7000 90° East 430 495 35,000  Level Moncton Center
02:08AM 43.9167 -61.5500 73° East 430 495 35,000  Level Moncton Center
02:09AM 43.9667 -61.3833 67° East 430 495 35,000  Level Moncton Center
02:10AM 43.9833 -61.2167 82° East 440 506 35,000  Level Moncton Center
02:11AM 44.0333 -61.0500 67° East 450 518 35,000  Level Moncton Center
02:12AM 44.0833 -60.8667 69° East 450 518 35,000  Level Moncton Center
02:13AM 44.1000 -60.7000 82° East 460 529 35,000  Level Moncton Center
02:13AM 44.1333 -60.6167 61° Northeast 460 529 35,000  Level Gander Center
02:14AM 44.1500 -60.5333 74° East 450 518 35,000  Level Moncton Center
02:15AM 44.1833 -60.3667 74° East 450 518 35,000  Level Moncton Center
02:16AM 44.2167 -60.2000 74° East 460 529 35,000  Level Moncton Center
02:17AM 44.2500 -60.0333 74° East 470 541 35,000  Level Moncton Center
02:18AM 44.3000 -59.8333 71° East 470 541 35,000  Level Moncton Center
02:19AM 44.3333 -59.6667 74° East 480 552 35,000  Level Moncton Center
02:20AM 44.3833 -59.4833 69° East 480 552 35,000  Level Moncton Center
02:21AM 44.4000 -59.3000 83° East 490 564 35,000  Level Moncton Center
02:21AM 44.4167 -59.2000 77° East 490 564 35,000  Level Gander Center
02:22AM 44.4500 -59.1000 65° Northeast 490 564 35,000  Level Moncton Center
02:23AM 44.4833 -58.9333 74° East 500 575 35,000  Level Moncton Center
02:23AM 44.5000 -58.8333 77° East 500 575 35,000  Level Gander Center
02:24AM 44.5500 -58.6333 71° East 500 575 35,000  Level Gander Center
02:25AM 44.5667 -58.4500 83° East 500 575 35,000  Level Gander Center
02:26AM 44.6167 -58.2667 69° East 500 575 35,000  Level Gander Center
02:27AM 44.6333 -58.1667 77° East 500 575 35,000  Level Moncton Center
02:27AM 44.6500 -58.0667 77° East 500 575 35,000  Level Gander Center
02:28AM 44.6833 -57.8833 76° East 510 587 35,000  Level Gander Center
02:29AM 44.7000 -57.7833 77° East 510 587 35,000  Level Moncton Center
02:30AM 44.7500 -57.5833 71° East 510 587 35,000  Level Moncton Center
02:30AM 44.7667 -57.4833 77° East 520 598 35,000  Level Gander Center
02:31AM 44.8000 -57.3167 74° East 520 598 35,000  Level Gander Center
02:32AM 44.8500 -57.1000 72° East 520 598 35,000  Level Gander Center
02:33AM 44.8667 -57.0000 77° East 520 598 35,000  Level Moncton Center
02:34AM 44.8833 -56.8167 83° East 510 587 35,000  Level Moncton Center
02:35AM 44.9167 -56.6167 77° East 510 587 35,000  Level Moncton Center
02:35AM 44.9333 -56.5167 77° East 520 598 35,000  Level Gander Center
02:36AM 44.9833 -56.3333 69° East 510 587 35,000  Level Gander Center
02:37AM 44.9833 -56.2333 90° East 500 575 35,000  Level Moncton Center
02:38AM 45.0333 -56.0667 67° East 480 552 35,000  Level Moncton Center
02:39AM 45.0833 -55.7833 76° East 480 552 35,000  Level Gander Center
02:40AM 45.1000 -55.6667 79° East 480 552 35,000  Level Moncton Center
02:40AM 45.1167 -55.5833 74° East 490 564 35,000  Level Gander Center
02:41AM 45.1333 -55.5000 74° East 490 564 35,000  Level Moncton Center
02:42AM 45.1667 -55.3000 77° East 490 564 35,000  Level Moncton Center
02:43AM 45.2000 -55.1333 74° East 500 575 35,000  Level Moncton Center
02:44AM 45.2333 -54.9000 78° East 500 575 35,000  Level Moncton Center
02:45AM 45.2667 -54.7333 74° East 500 575 35,000  Level Gander Center
02:46AM 45.3000 -54.5500 75° East 490 564 35,000  Level Gander Center
02:47AM 45.3167 -54.3500 83° East 490 564 35,000  Level Gander Center
02:48AM 45.3667 -54.1833 67° East 490 564 35,000  Level Gander Center
02:48AM 45.3667 -54.0667 90° East 500 575 35,000  Level Gander Center
02:49AM 45.3833 -53.9667 77° East 490 564 35,000 480 Level Moncton Center
02:50AM 45.4167 -53.8000 74° East 500 575 35,800 960 Climbing Moncton Center
02:51AM 45.4500 -53.6000 77° East 510 587 37,000 600 Climbing Gander Center
02:52AM 45.5000 -53.4000 70° East 500 575 37,000  Level Gander Center
02:53AM 45.5167 -53.2000 83° East 500 575 37,000  Level Gander Center
02:53AM 45.5333 -53.1000 77° East 500 575 37,000  Level Gander Center
02:54AM 45.5500 -53.0000 77° East 500 575 37,000  Level Moncton Center
02:55AM 45.5833 -52.8333 74° East 500 575 37,000  Level Moncton Center
02:55AM 45.5833 -52.7167 90° East 500 575 37,000  Level Gander Center
02:56AM 45.6333 -52.5167 70° East 500 575 37,000  Level Gander Center
02:57AM 45.6333 -52.4167 90° East 500 575 37,000  Level Gander Center
02:58AM 45.6667 -52.2500 74° East 510 587 37,000  Level Gander Center
02:59AM 45.7000 -52.0333 78° East 510 587 37,000  Level Gander Center
02:59AM 45.7167 -51.9333 77° East 510 587 37,000  Level Gander Center
03:00AM 45.7500 -51.7333 76° East 510 587 37,000  Level Gander Center
03:01AM 45.7667 -51.5167 84° East 510 587 37,000  Level Gander Center
03:02AM 45.7833 -51.4333 74° East 510 587 37,000  Level Gander Center
03:02AM 45.7833 -51.3167 90° East 520 598 37,000  Level Gander Center
03:03AM 45.8000 -51.2333 74° East 520 598 37,000  Level Moncton Center
03:04AM 45.8333 -51.0333 76° East 510 587 37,000  Level Gander Center
03:04AM 45.8500 -50.9167 78° East 520 598 37,000  Level Gander Center
03:05AM 45.8667 -50.8333 74° East 520 598 37,000  Level Gander Center
03:05AM 45.8833 -50.7167 78° East 510 587 37,000  Level Gander Center
03:06AM 45.9167 -50.5167 76° East 510 587 37,000  Level Gander Center
03:07AM 45.9333 -50.3167 83° East 520 598 37,000  Level Gander Center
03:08AM 45.9667 -50.1167 76° East 510 587 37,000  Level Gander Center
03:09AM 45.9833 -49.9167 83° East 510 587 37,000  Level Gander Center
03:10AM 46.0333 -49.7500 67° East 510 587 37,000  Level Gander Center
03:11AM 46.0833 -49.5333 72° East 510 587 37,000  Level Gander Center
03:12AM 46.1333 -49.3333 70° East 510 587 37,000  Level Gander Center
03:13AM 46.1500 -49.2500 74° East 510 587 37,000  Level Gander Center
03:14AM 46.2000 -49.0667 68° East 520 598 37,000  Level Gander Center
03:14AM 46.2167 -48.9500 78° East 510 587 37,000  Level Gander Center
03:15AM 46.2667 -48.7667 68° East 520 598 37,000  Level Gander Center
03:16AM 46.3167 -48.5667 70° East 520 598 37,000  Level Gander Center
03:17AM 46.3333 -48.4833 74° East 520 598 37,000  Level Gander Center
03:18AM 46.3833 -48.2833 70° East 510 587 37,000  Level Gander Center
03:18AM 46.4167 -48.1667 67° East 520 598 37,000  Level Gander Center
03:19AM 46.4667 -47.9833 68° East 510 587 37,000  Level Gander Center
03:20AM 46.5000 -47.7833 76° East 520 598 37,000  Level Gander Center
03:21AM 46.5167 -47.7000 74° East 520 598 37,000  Level Gander Center
03:21AM 46.5500 -47.6000 64° Northeast 520 598 37,000  Level Gander Center
03:23AM 46.6333 -47.2000 73° East 490 564 37,000  Level Gander Center
03:24AM 46.6667 -47.0000 76° East 490 564 37,000  Level Gander Center
03:25AM 46.7167 -46.8167 68° East 510 587 37,000 -60 Level Gander Center
03:27AM 46.7816 -46.5824 68° East  Level FlightAware Approximate
03:34AM 47.0643 -45.3005 73° East  Level FlightAware Approximate
03:35AM 47.1016 -45.1154 73° East  Level FlightAware Approximate
03:36AM 47.1385 -44.9299 74° East  Level FlightAware Approximate
03:37AM 47.1752 -44.7442 74° East  Level FlightAware Approximate
03:38AM 47.2116 -44.5583 74° East  Level FlightAware Approximate
03:39AM 47.2476 -44.3720 74° East  Level FlightAware Approximate
03:40AM 47.2834 -44.1856 74° East  Level FlightAware Approximate
03:41AM 47.3189 -43.9989 74° East  Level FlightAware Approximate
03:42AM 47.3540 -43.8119 74° East  Level FlightAware Approximate
03:43AM 47.3891 -43.6248 74° East  Level FlightAware Approximate
03:44AM 47.4239 -43.4374 75° East  Level FlightAware Approximate
03:45AM 47.4583 -43.2498 75° East  Level FlightAware Approximate
03:46AM 47.4924 -43.0619 75° East  Level FlightAware Approximate
03:47AM 47.5263 -42.8738 75° East  Level FlightAware Approximate
03:48AM 47.5598 -42.6854 75° East  Level FlightAware Approximate
03:49AM 47.5930 -42.4968 75° East  Level FlightAware Approximate
03:50AM 47.6259 -42.3080 75° East  Level FlightAware Approximate
03:51AM 47.6585 -42.1189 76° East  Level FlightAware Approximate
03:52AM 47.6908 -41.9296 76° East  Level FlightAware Approximate
03:53AM 47.7228 -41.7401 76° East  Level FlightAware Approximate
03:54AM 47.7544 -41.5503 76° East  Level FlightAware Approximate
03:55AM 47.7858 -41.3603 76° East  Level FlightAware Approximate
03:56AM 47.8168 -41.1701 76° East  Level FlightAware Approximate
03:57AM 47.8475 -40.9796 76° East  Level FlightAware Approximate
03:58AM 47.8779 -40.7889 77° East  Level FlightAware Approximate
03:59AM 47.9080 -40.5980 77° East  Level FlightAware Approximate
04:00AM 47.9378 -40.4069 77° East  Level FlightAware Approximate
04:01AM 47.9672 -40.2156 77° East  Level FlightAware Approximate
04:02AM 47.9964 -40.0240 77° East  Level FlightAware Approximate
04:03AM 48.0244 -39.8320 78° East  Level FlightAware Approximate
04:04AM 48.0520 -39.6397 78° East  Level FlightAware Approximate
04:05AM 48.0793 -39.4472 78° East  Level FlightAware Approximate
04:06AM 48.1062 -39.2545 78° East  Level FlightAware Approximate
04:07AM 48.1328 -39.0616 78° East  Level FlightAware Approximate
04:08AM 48.1591 -38.8685 78° East  Level FlightAware Approximate
04:09AM 48.1851 -38.6753 79° East  Level FlightAware Approximate
04:10AM 48.2108 -38.4818 79° East  Level FlightAware Approximate
04:11AM 48.2361 -38.2881 79° East  Level FlightAware Approximate
04:12AM 48.2611 -38.0942 79° East  Level FlightAware Approximate
04:13AM 48.2858 -37.9002 79° East  Level FlightAware Approximate
04:14AM 48.3102 -37.7060 79° East  Level FlightAware Approximate
04:15AM 48.3342 -37.5115 79° East  Level FlightAware Approximate
04:16AM 48.3579 -37.3169 80° East  Level FlightAware Approximate
04:17AM 48.3812 -37.1222 80° East  Level FlightAware Approximate
04:18AM 48.4043 -36.9272 80° East  Level FlightAware Approximate
04:19AM 48.4270 -36.7321 80° East  Level FlightAware Approximate
04:20AM 48.4494 -36.5368 80° East  Level FlightAware Approximate
04:21AM 48.4714 -36.3413 80° East  Level FlightAware Approximate
04:22AM 48.4931 -36.1456 80° East  Level FlightAware Approximate
04:23AM 48.5145 -35.9498 81° East  Level FlightAware Approximate
04:24AM 48.5356 -35.7538 81° East  Level FlightAware Approximate
04:25AM 48.5563 -35.5577 81° East  Level FlightAware Approximate
04:26AM 48.5767 -35.3614 81° East  Level FlightAware Approximate
04:27AM 48.5967 -35.1649 81° East  Level FlightAware Approximate
04:28AM 48.6165 -34.9683 81° East  Level FlightAware Approximate
04:29AM 48.6358 -34.7715 81° East  Level FlightAware Approximate
04:30AM 48.6549 -34.5746 82° East  Level FlightAware Approximate
04:31AM 48.6736 -34.3776 82° East  Level FlightAware Approximate
04:32AM 48.6920 -34.1804 82° East  Level FlightAware Approximate
04:33AM 48.7100 -33.9830 82° East  Level FlightAware Approximate
04:34AM 48.7277 -33.7855 82° East  Level FlightAware Approximate
04:35AM 48.7451 -33.5879 82° East  Level FlightAware Approximate
04:36AM 48.7621 -33.3901 82° East  Level FlightAware Approximate
04:37AM 48.7788 -33.1922 83° East  Level FlightAware Approximate
04:38AM 48.7952 -32.9942 83° East  Level FlightAware Approximate
04:39AM 48.8112 -32.7960 83° East  Level FlightAware Approximate
04:40AM 48.8269 -32.5978 83° East  Level FlightAware Approximate
04:41AM 48.8422 -32.3993 83° East  Level FlightAware Approximate
04:42AM 48.8572 -32.2008 83° East  Level FlightAware Approximate
04:43AM 48.8718 -32.0022 84° East  Level FlightAware Approximate
04:44AM 48.8861 -31.8034 84° East  Level FlightAware Approximate
04:45AM 48.9001 -31.6046 84° East  Level FlightAware Approximate
04:46AM 48.9137 -31.4056 84° East  Level FlightAware Approximate
04:47AM 48.9270 -31.2065 84° East  Level FlightAware Approximate
04:48AM 48.9399 -31.0073 84° East  Level FlightAware Approximate
04:49AM 48.9525 -30.8080 84° East  Level FlightAware Approximate
04:50AM 48.9648 -30.6086 85° East  Level FlightAware Approximate
04:51AM 48.9767 -30.4091 85° East  Level FlightAware Approximate
04:52AM 48.9882 -30.2096 85° East  Level FlightAware Approximate
04:53AM 48.9995 -30.0099 85° East  Level FlightAware Approximate
04:54AM 49.0077 -29.8098 86° East  Level FlightAware Approximate
04:55AM 49.0155 -29.6097 87° East  Level FlightAware Approximate
04:56AM 49.0229 -29.4095 87° East  Level FlightAware Approximate
04:57AM 49.0300 -29.2093 87° East  Level FlightAware Approximate
04:58AM 49.0368 -29.0090 87° East  Level FlightAware Approximate
04:59AM 49.0432 -28.8086 87° East  Level FlightAware Approximate
05:00AM 49.0492 -28.6082 87° East  Level FlightAware Approximate
05:01AM 49.0550 -28.4078 87° East  Level FlightAware Approximate
05:02AM 49.0603 -28.2073 88° East  Level FlightAware Approximate
05:03AM 49.0653 -28.0068 88° East  Level FlightAware Approximate
05:04AM 49.0700 -27.8062 88° East  Level FlightAware Approximate
05:05AM 49.0743 -27.6056 88° East  Level FlightAware Approximate
05:06AM 49.0783 -27.4049 88° East  Level FlightAware Approximate
05:07AM 49.0819 -27.2043 88° East  Level FlightAware Approximate
05:08AM 49.0852 -27.0036 88° East  Level FlightAware Approximate
05:09AM 49.0881 -26.8029 89° East  Level FlightAware Approximate
05:10AM 49.0907 -26.6021 89° East  Level FlightAware Approximate
05:11AM 49.0929 -26.4013 89° East  Level FlightAware Approximate
05:12AM 49.0948 -26.2005 89° East  Level FlightAware Approximate
05:13AM 49.0963 -25.9997 89° East  Level FlightAware Approximate
05:14AM 49.0975 -25.7989 89° East  Level FlightAware Approximate
05:15AM 49.0983 -25.5981 90° East  Level FlightAware Approximate
05:16AM 49.0988 -25.3973 90° East  Level FlightAware Approximate
05:17AM 49.0989 -25.1965 90° East  Level FlightAware Approximate
05:18AM 49.0987 -24.9956 90° East  Level FlightAware Approximate
05:19AM 49.0982 -24.7948 90° East  Level FlightAware Approximate
05:20AM 49.0973 -24.5940 90° East  Level FlightAware Approximate
05:21AM 49.0960 -24.3932 90° East  Level FlightAware Approximate
05:22AM 49.0944 -24.1924 91° East  Level FlightAware Approximate
05:23AM 49.0925 -23.9916 91° East  Level FlightAware Approximate
05:24AM 49.0902 -23.7908 91° East  Level FlightAware Approximate
05:25AM 49.0875 -23.5901 91° East  Level FlightAware Approximate
05:26AM 49.0845 -23.3894 91° East  Level FlightAware Approximate
05:27AM 49.0812 -23.1887 91° East  Level FlightAware Approximate
05:28AM 49.0775 -22.9880 92° East  Level FlightAware Approximate
05:29AM 49.0734 -22.7873 92° East  Level FlightAware Approximate
05:30AM 49.0691 -22.5868 92° East  Level FlightAware Approximate
05:31AM 49.0651 -22.3861 91° East  Level FlightAware Approximate
05:32AM 49.0615 -22.1855 91° East  Level FlightAware Approximate
05:33AM 49.0576 -21.9849 92° East  Level FlightAware Approximate
05:34AM 49.0533 -21.7844 92° East  Level FlightAware Approximate
05:35AM 49.0487 -21.5839 92° East  Level FlightAware Approximate
05:36AM 49.0437 -21.3834 92° East  Level FlightAware Approximate
05:37AM 49.0384 -21.1830 92° East  Level FlightAware Approximate
05:38AM 49.0328 -20.9826 92° East  Level FlightAware Approximate
05:39AM 49.0268 -20.7823 93° East  Level FlightAware Approximate
05:40AM 49.0204 -20.5820 93° East  Level FlightAware Approximate
05:41AM 49.0137 -20.3817 93° East  Level FlightAware Approximate
05:42AM 49.0067 -20.1815 93° East  Level FlightAware Approximate
05:43AM 49.0017 -19.9816 82° East  Level FlightAware Approximate
05:44AM 49.0198 -19.7830 82° East  Level FlightAware Approximate
05:45AM 49.0376 -19.5843 82° East  Level FlightAware Approximate
05:46AM 49.0550 -19.3855 82° East  Level FlightAware Approximate
05:47AM 49.0720 -19.1865 82° East  Level FlightAware Approximate
05:48AM 49.0888 -18.9874 83° East  Level FlightAware Approximate
05:49AM 49.1052 -18.7881 83° East  Level FlightAware Approximate
05:50AM 49.1212 -18.5887 83° East  Level FlightAware Approximate
05:51AM 49.1369 -18.3892 83° East  Level FlightAware Approximate
05:52AM 49.1523 -18.1896 83° East  Level FlightAware Approximate
05:53AM 49.1673 -17.9898 83° East  Level FlightAware Approximate
05:54AM 49.1820 -17.7899 84° East  Level FlightAware Approximate
05:55AM 49.1963 -17.5899 84° East  Level FlightAware Approximate
05:56AM 49.2103 -17.3898 84° East  Level FlightAware Approximate
05:57AM 49.2239 -17.1896 84° East  Level FlightAware Approximate
05:58AM 49.2372 -16.9893 84° East  Level FlightAware Approximate
05:59AM 49.2501 -16.7888 84° East  Level FlightAware Approximate
06:00AM 49.2627 -16.5883 84° East  Level FlightAware Approximate
06:01AM 49.2750 -16.3877 85° East  Level FlightAware Approximate
06:02AM 49.2869 -16.1869 85° East  Level FlightAware Approximate
06:03AM 49.2984 -15.9861 85° East  Level FlightAware Approximate
06:04AM 49.3096 -15.7851 85° East  Level FlightAware Approximate
06:05AM 49.3205 -15.5841 85° East  Level FlightAware Approximate
06:06AM 49.3309 -15.3839 85° East  Level FlightAware Approximate
06:07AM 49.3410 -15.1835 85° East  Level FlightAware Approximate
06:08AM 49.3509 -14.9831 85° East  Level FlightAware Approximate
06:09AM 49.3610 -14.7827 85° East  Level FlightAware Approximate
06:10AM 49.3709 -14.5822 86° East  Level FlightAware Approximate
06:11AM 49.3803 -14.3816 86° East  Level FlightAware Approximate
06:12AM 49.3895 -14.1809 86° East  Level FlightAware Approximate
06:13AM 49.3983 -13.9802 86° East  Level FlightAware Approximate
06:14AM 49.4067 -13.7794 86° East  Level FlightAware Approximate
06:15AM 49.4148 -13.5785 86° East  Level FlightAware Approximate
06:16AM 49.4225 -13.3776 87° East  Level FlightAware Approximate
06:17AM 49.4299 -13.1766 87° East  Level FlightAware Approximate
06:18AM 49.4370 -12.9755 87° East  Level FlightAware Approximate
06:19AM 49.4437 -12.7744 87° East  Level FlightAware Approximate
06:20AM 49.4500 -12.5732 87° East  Level FlightAware Approximate
06:21AM 49.4560 -12.3720 87° East  Level FlightAware Approximate
06:22AM 49.4617 -12.1708 87° East  Level FlightAware Approximate
06:23AM 49.4670 -11.9694 88° East  Level FlightAware Approximate
06:24AM 49.4719 -11.7681 88° East  Level FlightAware Approximate
06:25AM 49.4765 -11.5667 88° East  Level FlightAware Approximate
06:26AM 49.4808 -11.3653 88° East  Level FlightAware Approximate
06:27AM 49.4847 -11.1638 88° East  Level FlightAware Approximate
06:28AM 49.4882 -10.9623 88° East  Level FlightAware Approximate
06:29AM 49.4914 -10.7608 89° East  Level FlightAware Approximate
06:30AM 49.4943 -10.5593 89° East  Level FlightAware Approximate
06:31AM 49.4968 -10.3577 89° East  Level FlightAware Approximate
06:32AM 49.4989 -10.1561 89° East  Level FlightAware Approximate
06:33AM 49.5007 -9.9545 89° East  Level FlightAware Approximate
06:33AM 49.2563 -8.9856 89° East 452 520 35,500  Level FlightAware UK
06:33AM 49.2585 -8.9208 87° East 452 520 35,500  Level FlightAware UK
06:33AM 49.2602 -8.8559 88° East 452 520 35,500  Level FlightAware UK
06:34AM 49.2618 -8.7906 88° East 452 520 35,500  Level FlightAware UK
06:34AM 49.2633 -8.7252 88° East 452 520 35,500  Level FlightAware UK
06:34AM 49.2648 -8.6599 88° East 450 518 35,500  Level FlightAware UK
06:35AM 49.2663 -8.5945 88° East 450 518 35,500  Level FlightAware UK
06:35AM 49.2676 -8.5292 88° East 446 513 35,500  Level FlightAware UK
06:35AM 49.2689 -8.4637 88° East 446 513 35,500  Level FlightAware UK
06:35AM 49.2703 -8.3982 88° East 448 516 35,500  Level FlightAware UK
06:36AM 49.2716 -8.3326 88° East 448 516 35,500  Level FlightAware UK
06:36AM 49.2729 -8.2667 88° East 450 518 35,500  Level FlightAware UK
06:36AM 49.2742 -8.2008 88° East 454 522 35,500  Level FlightAware UK
06:37AM 49.2756 -8.1348 88° East 456 525 35,500  Level FlightAware UK
06:37AM 49.2768 -8.0688 88° East 456 525 35,500  Level FlightAware UK
06:37AM 49.2777 -8.0018 89° East 456 525 35,500  Level FlightAware UK
06:38AM 49.2787 -7.9356 89° East 456 525 35,500  Level FlightAware UK
06:38AM 49.2796 -7.8694 89° East 456 525 35,500  Level FlightAware UK
06:38AM 49.2808 -7.7811 89° East 456 525 35,500  Level FlightAware UK
06:39AM 49.2828 -7.7150 87° East 456 525 35,500  Level FlightAware UK
06:39AM 49.2869 -7.6485 85° East 454 522 35,500  Level FlightAware UK
06:39AM 49.2919 -7.5603 85° East 454 522 35,500  Level FlightAware UK
06:40AM 49.2951 -7.4939 86° East 452 520 35,500  Level FlightAware UK
06:40AM 49.2999 -7.3833 86° East 454 522 35,500  Level FlightAware UK
06:40AM 49.3027 -7.3169 86° East 454 522 35,500  Level FlightAware UK
06:41AM 49.3053 -7.2502 86° East 454 522 35,500  Level FlightAware UK
06:41AM 49.3079 -7.1836 87° East 456 525 35,500  Level FlightAware UK
06:41AM 49.3105 -7.1169 87° East 456 525 35,500  Level FlightAware UK
06:42AM 49.3131 -7.0502 87° East 458 527 35,500  Level FlightAware UK
06:42AM 49.3154 -6.9835 87° East 458 527 35,500  Level FlightAware UK
06:42AM 49.3176 -6.9161 87° East 456 525 35,500  Level FlightAware UK
06:42AM 49.3198 -6.8493 87° East 456 525 35,500  Level FlightAware UK
06:43AM 49.3220 -6.7827 87° East 456 525 35,500  Level FlightAware UK
06:43AM 49.3242 -6.7161 87° East 454 522 35,500  Level FlightAware UK
06:43AM 49.3265 -6.6495 87° East 452 520 35,500  Level FlightAware UK
06:44AM 49.3289 -6.5831 87° East 452 520 35,500  Level FlightAware UK
06:44AM 49.3319 -6.4945 87° East 452 520 35,500  Level FlightAware UK
06:44AM 49.3340 -6.4280 87° East 452 520 35,500  Level FlightAware UK
06:45AM 49.3360 -6.3615 87° East 452 520 35,500  Level FlightAware UK
06:45AM 49.3379 -6.2950 87° East 454 522 35,500  Level FlightAware UK
06:45AM 49.3406 -6.2064 87° East 454 522 35,500  Level FlightAware UK
06:46AM 49.3425 -6.1399 87° East 452 520 35,500  Level FlightAware UK
06:46AM 49.3445 -6.0735 87° East 452 520 35,500  Level FlightAware UK
06:46AM 49.3478 -5.9627 87° East 452 520 35,500  Level FlightAware UK
06:47AM 49.3501 -5.8742 88° East 452 520 35,500  Level FlightAware UK
06:47AM 49.3519 -5.8071 88° East 452 520 35,500  Level FlightAware UK
06:47AM 49.3538 -5.7408 87° East 450 518 35,500  Level FlightAware UK
06:48AM 49.3556 -5.6744 88° East 450 518 35,500  Level FlightAware UK
06:48AM 49.3578 -5.5859 88° East 450 518 35,500  Level FlightAware UK
06:48AM 49.3593 -5.5195 88° East 448 516 35,500  Level FlightAware UK
06:49AM 49.3614 -5.4309 88° East 448 516 35,500  Level FlightAware UK
06:49AM 49.3629 -5.3637 88° East 450 518 35,500  Level FlightAware UK
06:49AM 49.3643 -5.2972 88° East 452 520 35,500  Level FlightAware UK
06:50AM 49.3658 -5.2306 88° East 452 520 35,500  Level FlightAware UK
06:50AM 49.3684 -5.0976 88° East 452 520 35,500  Level FlightAware UK
06:51AM 49.3699 -5.0311 88° East 450 518 35,500  Level FlightAware UK
06:51AM 49.3717 -4.9423 88° East 448 516 35,500  Level FlightAware UK
06:51AM 49.3731 -4.8750 88° East 450 518 35,500  Level FlightAware UK
06:52AM 49.3743 -4.8084 88° East 450 518 35,500  Level FlightAware UK
06:52AM 49.3754 -4.7425 89° East 452 520 35,500  Level FlightAware UK
06:52AM 49.3765 -4.6759 89° East 452 520 35,500  Level FlightAware UK
06:53AM 49.3776 -4.6086 89° East 452 520 35,500  Level FlightAware UK
06:53AM 49.3786 -4.5419 89° East 452 520 35,500  Level FlightAware UK
06:53AM 49.3797 -4.4753 88° East 450 518 35,500  Level FlightAware UK
06:53AM 49.3806 -4.4085 89° East 448 516 35,500  Level FlightAware UK
06:54AM 49.3815 -4.3418 89° East 448 516 35,500  Level FlightAware UK
06:54AM 49.3829 -4.2303 89° East 448 516 35,500  Level FlightAware UK
06:55AM 49.3838 -4.1634 89° East 448 516 35,500  Level FlightAware UK
06:55AM 49.3862 -3.9623 89° East 450 518 35,500  Level FlightAware UK
06:56AM 49.3878 -3.8057 89° East 450 518 35,500  Level FlightAware UK
06:56AM 49.3884 -3.7384 89° East 450 518 35,500  Level FlightAware UK
06:57AM 49.3889 -3.6710 89° East 452 520 35,500  Level FlightAware UK
06:57AM 49.3893 -3.6028 89° East 454 522 35,500  Level FlightAware UK
06:58AM 49.3899 -3.4905 89° East 454 522 35,500  Level FlightAware UK
06:58AM 49.3904 -3.4231 89° East 454 522 35,500  Level FlightAware UK
06:58AM 49.3909 -3.3550 89° East 454 522 35,500  Level FlightAware UK
06:58AM 49.3912 -3.2877 90° East 456 525 35,500  Level FlightAware UK
06:59AM 49.3916 -3.1980 90° East 454 522 35,500  Level FlightAware UK
06:59AM 49.3917 -3.1309 90° East 454 522 35,500  Level FlightAware UK
06:59AM 49.3919 -3.0631 90° East 452 520 35,500  Level FlightAware UK
07:00AM 49.3918 -2.9961 90° East 450 518 35,500  Level FlightAware UK
07:00AM 49.3920 -2.9292 90° East 450 518 35,500  Level FlightAware UK
07:00AM 49.3921 -2.8400 90° East 448 516 35,500  Level FlightAware UK
07:01AM 49.3919 -2.7723 90° East 448 516 35,500  Level FlightAware UK
07:01AM 49.3917 -2.7053 90° East 448 516 35,500  Level FlightAware UK
07:01AM 49.3915 -2.6391 90° East 450 518 35,500  Level FlightAware UK
07:02AM 49.3912 -2.5714 90° East 450 518 35,500  Level FlightAware UK
07:02AM 49.3910 -2.5046 90° East 448 516 35,500  Level FlightAware UK
07:02AM 49.3912 -2.3923 90° East 446 513 35,500  Level FlightAware UK
07:03AM 49.3910 -2.3255 90° East 446 513 35,500  Level FlightAware UK
07:03AM 49.3907 -2.2586 90° East 446 513 35,500  Level FlightAware UK
07:03AM 49.3903 -2.1918 91° East 446 513 35,500  Level FlightAware UK
07:04AM 49.3895 -2.0570 90° East 448 516 35,500  Level FlightAware UK
07:04AM 49.3890 -1.9899 91° East 446 513 35,500  Level FlightAware UK
07:05AM 49.3886 -1.9228 91° East 444 511 35,500  Level FlightAware UK
07:05AM 49.3883 -1.8556 90° East 444 511 35,500  Level FlightAware UK
07:05AM 49.3870 -1.7208 91° East 444 511 35,500  Level FlightAware UK
07:06AM 49.3866 -1.6539 91° East 444 511 35,500  Level FlightAware UK
07:06AM 49.3860 -1.5868 91° East 444 511 35,500  Level FlightAware UK
07:06AM 49.3852 -1.5187 91° East 446 513 35,500  Level FlightAware UK
07:07AM 49.3843 -1.4514 91° East 446 513 35,500  Level FlightAware UK
07:07AM 49.3829 -1.3390 91° East 448 516 35,500  Level FlightAware UK
07:07AM 49.3822 -1.2708 91° East 448 516 35,500  Level FlightAware UK
07:08AM 49.3808 -1.1585 91° East 446 513 35,500  Level FlightAware UK
07:08AM 49.3798 -1.0904 91° East 446 513 35,500  Level FlightAware UK
07:09AM 49.3788 -1.0229 91° East 448 516 35,500  Level FlightAware UK
07:09AM 49.3774 -0.9330 91° East 448 516 35,500 -720 Level FlightAware UK
07:09AM 49.3763 -0.8657 91° East 442 509 35,000 -2,880 Descending FlightAware UK
07:10AM 49.3752 -0.7984 91° East 452 520 33,800 -3,720 Descending FlightAware UK
07:10AM 49.3741 -0.7311 91° East 460 529 32,800 -3,180 Descending FlightAware UK
07:10AM 49.3726 -0.6633 92° East 460 529 31,900 -3,540 Descending FlightAware UK
07:10AM 49.3710 -0.5945 92° East 460 529 30,700 -3,300 Descending FlightAware UK
07:11AM 49.3688 -0.4780 92° East 458 527 29,300 -3,300 Descending FlightAware UK
07:11AM 49.3677 -0.4094 91° East 462 532 28,100 -3,180 Descending FlightAware UK
07:12AM 49.3650 -0.2945 92° East 458 527 26,800 -2,040 Descending FlightAware UK
07:12AM 49.3567 -0.1589 95° East 446 513 25,900 -1,800 Descending FlightAware UK
07:13AM 49.3562 -0.0917 91° East 444 511 25,200 -2,220 Descending FlightAware UK
07:13AM 49.3535 0.0626 92° East 434 499 23,700 -2,220 Descending FlightAware UK
07:14AM 49.3520 0.1259 92° East 428 493 23,000 -2,520 Descending FlightAware UK
07:14AM 49.3492 0.2302 92° East 418 481 21,700 -2,640 Descending FlightAware UK
07:14AM 49.3471 0.2935 93° East 416 479 20,900 -2,340 Descending FlightAware UK
07:15AM 49.3451 0.3553 93° East 412 474 20,300 -2,160 Descending FlightAware UK
07:15AM 49.3423 0.4367 93° East 404 465 19,400 -2,400 Descending FlightAware UK
07:15AM 49.3402 0.4979 93° East 400 460 18,600 -2,460 Descending FlightAware UK
07:16AM 49.3381 0.5580 93° East 396 456 17,900 -2,340 Descending FlightAware UK
07:16AM 49.3359 0.6184 93° East 394 453 17,200 -2,340 Descending FlightAware UK
07:16AM 49.3339 0.6768 93° East 392 451 16,500 -2,040 Descending FlightAware UK
07:17AM 49.3299 0.7928 93° East 390 449 15,400 -1,800 Descending FlightAware UK
07:18AM 49.3254 0.9204 93° East 374 430 14,200 -2,040 Descending FlightAware UK
07:18AM 49.3234 0.9746 93° East 374 430 13,400 -2,220 Descending FlightAware UK
07:18AM 49.3212 1.0289 94° East 370 426 12,900 -2,040 Descending FlightAware UK
07:19AM 49.3192 1.0818 93° East 366 421 12,200 -2,220 Descending FlightAware UK
07:19AM 49.3171 1.1343 94° East 362 417 11,600 -2,040 Descending FlightAware UK
07:19AM 49.3153 1.1865 93° East 356 410 11,000 -1,440 Descending FlightAware UK
07:20AM 49.3126 1.2542 93° East 352 405 10,600 -660 Descending FlightAware UK
07:20AM 49.3101 1.3229 93° East 352 405 10,500 -180 Descending FlightAware UK
07:20AM 49.3079 1.3739 94° East 356 410 10,500  Level FlightAware UK
07:21AM 49.3059 1.4259 93° East 356 410 10,500  Level FlightAware UK
07:21AM 49.3037 1.4773 94° East 356 410 10,500  Level FlightAware UK
07:21AM 49.3016 1.5288 94° East 358 412 10,500  Level FlightAware UK
07:21AM 49.2996 1.5802 93° East 356 410 10,500  Level FlightAware UK
07:22AM 49.2976 1.6315 93° East 354 407 10,500  Level FlightAware UK
07:22AM 49.2921 1.7504 94° East 358 412 10,500 -360 Level FlightAware UK
07:23AM 49.2887 1.8361 93° East 352 405 10,100 -1,140 Descending FlightAware UK
07:23AM 49.2860 1.9042 93° East 350 403 9,500 -900 Descending FlightAware UK
07:24AM 49.2829 1.9716 94° East 346 398 9,400  Descending FlightAware UK
07:25AM 49.2894 2.1976 87° East 1 1 9,500 60 Climbing FlightAware UK
07:27AM 49.1372 2.3921 140° Southeast  Level Estimated
07:34AM 49.0128 2.5500 140° Southeast  Level Estimated
07:35AM 49.0128 2.5500 180° South  Level Estimated
07:36AM 49.0128 2.5500 180° South  Level Estimated
07:37AM 49.0128 2.5500 180° South  Level Estimated
07:38AM 49.0128 2.5500 180° South  Level Estimated
07:39AM 49.0128 2.5500 180° South  Level Estimated
07:40AM 49.0128 2.5500 180° South  Level Estimated
07:41AM 49.0128 2.5500 180° South  Level Estimated
07:42AM 49.0128 2.5500 180° South  Level Estimated